createdAt,value
2022-11-27T00:01:31.191Z,6.30
2022-11-27T00:03:58.240Z,6.57
2022-11-27T00:06:27.858Z,6.45
2022-11-27T00:08:57.363Z,7.10
2022-11-27T00:11:25.784Z,6.18
2022-11-27T00:13:53.155Z,6.03
2022-11-27T00:16:21.948Z,6.65
2022-11-27T00:18:49.807Z,6.18
2022-11-27T00:21:19.867Z,6.18
2022-11-27T00:23:46.786Z,6.50
2022-11-27T00:26:13.740Z,5.53
2022-11-27T00:28:40.981Z,6.43
2022-11-27T00:31:13.437Z,5.63
2022-11-27T00:33:40.569Z,5.32
2022-11-27T00:36:08.602Z,5.50
2022-11-27T00:38:39.015Z,4.72
2022-11-27T00:41:11.052Z,5.45
2022-11-27T00:43:44.506Z,5.70
2022-11-27T00:48:40.696Z,4.75
2022-11-27T00:51:09.462Z,4.97
2022-11-27T00:53:36.819Z,5.38
2022-11-27T00:56:04.066Z,5.22
2022-11-27T00:58:31.009Z,6.07
2022-11-27T01:01:04.473Z,5.57
2022-11-27T01:03:32.543Z,6.47
2022-11-27T01:06:06.972Z,5.75
2022-11-27T01:08:34.748Z,4.70
2022-11-27T01:11:02.052Z,6.03
2022-11-27T01:13:32.753Z,5.47
2022-11-27T01:16:12.264Z,5.32
2022-11-27T01:18:41.565Z,6.13
2022-11-27T01:21:09.566Z,6.75
2022-11-27T01:23:37.007Z,5.97
2022-11-27T01:26:06.569Z,5.40
2022-11-27T01:28:34.430Z,5.65
2022-11-27T01:31:16.813Z,5.43
2022-11-27T01:33:44.829Z,6.38
2022-11-27T01:36:13.854Z,5.10
2022-11-27T01:38:41.309Z,6.75
2022-11-27T01:41:17.149Z,5.30
2022-11-27T01:43:50.023Z,5.80
2022-11-27T01:46:23.097Z,6.50
2022-11-27T01:48:52.366Z,5.68
2022-11-27T01:51:20.235Z,5.68
2022-11-27T01:53:47.774Z,5.57
2022-11-27T01:56:15.630Z,5.18
2022-11-27T01:58:42.894Z,5.60
2022-11-27T02:01:10.658Z,5.60
2022-11-27T02:03:37.790Z,5.65
2022-11-27T02:06:04.977Z,6.13
2022-11-27T02:08:32.243Z,6.30
2022-11-27T02:11:06.709Z,5.95
2022-11-27T02:13:46.663Z,5.72
2022-11-27T02:16:30.035Z,6.47
2022-11-27T02:19:26.099Z,5.88
2022-11-27T02:22:44.886Z,5.85
2022-11-27T02:25:46.382Z,5.32
2022-11-27T02:28:25.219Z,5.45
2022-11-27T02:30:59.018Z,5.53
2022-11-27T02:33:27.054Z,5.32
2022-11-27T02:36:05.830Z,5.47
2022-11-27T02:38:47.029Z,5.60
2022-11-27T02:41:38.796Z,5.80
2022-11-27T02:44:09.415Z,5.55
2022-11-27T02:46:37.944Z,5.07
2022-11-27T02:49:11.233Z,5.80
2022-11-27T02:51:47.520Z,5.13
2022-11-27T02:54:21.729Z,5.80
2022-11-27T02:56:50.722Z,5.50
2022-11-27T02:59:18.674Z,5.38
2022-11-27T03:02:01.180Z,5.10
2022-11-27T03:04:39.706Z,5.57
2022-11-27T03:07:12.505Z,5.65
2022-11-27T03:09:43.066Z,5.63
2022-11-27T03:12:12.089Z,6.07
2022-11-27T03:14:42.282Z,5.68
2022-11-27T03:17:53.538Z,5.05
2022-11-27T03:20:29.958Z,5.30
2022-11-27T03:22:57.262Z,5.35
2022-11-27T03:25:24.753Z,5.80
2022-11-27T03:28:04.965Z,6.20
2022-11-27T03:30:32.255Z,6.15
2022-11-27T03:32:59.418Z,5.80
2022-11-27T03:35:28.158Z,5.63
2022-11-27T03:37:56.071Z,5.43
2022-11-27T03:40:30.544Z,5.72
2022-11-27T03:43:12.198Z,4.82
2022-11-27T03:45:56.237Z,6.35
2022-11-27T03:48:48.749Z,5.40
2022-11-27T03:51:18.556Z,5.22
2022-11-27T03:54:08.422Z,6.03
2022-11-27T03:57:03.828Z,5.00
2022-11-27T03:59:37.538Z,5.55
2022-11-27T04:02:04.607Z,4.68
2022-11-27T04:04:31.606Z,5.22
2022-11-27T04:06:58.590Z,5.25
2022-11-27T04:09:25.583Z,5.40
2022-11-27T04:11:52.537Z,5.50
2022-11-27T04:14:19.414Z,5.45
2022-11-27T04:16:46.422Z,5.65
2022-11-27T04:19:13.421Z,5.30
2022-11-27T04:21:40.398Z,5.43
2022-11-27T04:24:07.663Z,4.93
2022-11-27T04:26:34.664Z,5.22
2022-11-27T04:29:01.878Z,5.40
2022-11-27T04:31:29.192Z,6.13
2022-11-27T04:43:04.575Z,5.35
2022-11-27T04:48:29.604Z,5.40
2022-11-27T04:50:56.831Z,5.25
2022-11-27T04:53:23.754Z,5.28
2022-11-27T04:55:52.954Z,5.55
2022-11-27T05:07:42.760Z,4.82
2022-11-27T05:10:10.246Z,4.90
2022-11-27T05:15:47.063Z,5.07
2022-11-27T05:24:14.966Z,5.13
2022-11-27T05:32:37.113Z,5.00
2022-11-27T05:38:32.931Z,4.47
2022-11-27T06:02:50.136Z,4.60
2022-11-27T06:05:17.492Z,5.30
2022-11-27T06:07:44.780Z,4.47
2022-11-27T06:10:12.227Z,4.63
2022-11-27T06:28:44.295Z,4.55
2022-11-27T06:31:18.079Z,4.05
2022-11-27T06:36:18.126Z,4.85
2022-11-27T06:38:46.063Z,3.90
2022-11-27T06:41:16.219Z,4.38
2022-11-27T06:43:43.564Z,5.18
2022-11-27T06:46:14.323Z,4.00
2022-11-27T06:48:43.668Z,4.75
2022-11-27T06:51:13.380Z,4.50
2022-11-27T06:53:41.567Z,3.97
2022-11-27T06:56:11.574Z,4.10
2022-11-27T07:08:02.447Z,4.10
2022-11-27T07:10:29.812Z,4.25
2022-11-27T07:12:57.079Z,4.22
2022-11-27T07:15:24.289Z,4.25
2022-11-27T07:17:59.887Z,4.18
2022-11-27T07:20:27.294Z,4.20
2022-11-27T07:22:54.485Z,4.90
2022-11-27T07:25:21.593Z,4.40
2022-11-27T07:27:48.823Z,4.32
2022-11-27T07:30:40.963Z,3.90
2022-11-27T07:33:08.156Z,4.07
2022-11-27T07:35:35.198Z,4.47
2022-11-27T07:38:02.206Z,4.32
2022-11-27T07:40:29.211Z,4.30
2022-11-27T07:42:56.162Z,4.20
2022-11-27T07:45:23.070Z,4.45
2022-11-27T07:47:50.021Z,4.45
2022-11-27T07:50:16.960Z,4.60
2022-11-27T07:52:44.295Z,4.57
2022-11-27T07:55:11.589Z,4.20
2022-11-27T07:57:39.476Z,4.18
2022-11-27T08:00:07.165Z,4.70
2022-11-27T08:05:35.767Z,4.80
2022-11-27T08:08:05.083Z,4.93
2022-11-27T08:10:36.210Z,4.68
2022-11-27T08:23:06.311Z,5.10
2022-11-27T08:28:36.589Z,4.30
2022-11-27T08:34:13.105Z,5.05
2022-11-27T08:36:40.233Z,4.60
2022-11-27T08:39:07.750Z,4.55
2022-11-27T08:41:35.066Z,4.93
2022-11-27T08:44:06.698Z,4.90
2022-11-27T08:49:03.658Z,4.22
2022-11-27T08:57:43.494Z,4.40
2022-11-27T09:00:11.637Z,4.45
2022-11-27T09:11:44.350Z,4.35
2022-11-27T09:14:12.566Z,4.45
2022-11-27T09:19:42.123Z,4.57
2022-11-27T09:22:09.405Z,4.85
2022-11-27T09:24:37.519Z,4.88
2022-11-27T09:27:04.795Z,4.40
2022-11-27T09:35:54.611Z,4.95
2022-11-27T10:07:03.215Z,4.50
2022-11-27T10:22:40.055Z,4.97
2022-11-27T10:37:06.352Z,5.95
2022-11-27T10:51:42.287Z,5.28
2022-11-27T10:54:26.983Z,6.03
2022-11-27T10:57:18.839Z,5.32
2022-11-27T11:00:19.175Z,6.38
2022-11-27T11:02:46.996Z,5.43
2022-11-27T11:08:20.073Z,5.30
2022-11-27T11:11:05.882Z,5.72
2022-11-27T11:13:43.890Z,6.72
2022-11-27T11:16:14.777Z,6.68
2022-11-27T11:18:51.170Z,6.63
2022-11-27T11:21:38.032Z,5.68
2022-11-27T11:24:08.202Z,5.28
2022-11-27T11:26:46.520Z,5.78
2022-11-27T11:29:35.310Z,5.20
2022-11-27T11:32:14.912Z,6.13
2022-11-27T11:34:56.204Z,5.57
2022-11-27T11:37:31.972Z,5.32
2022-11-27T11:40:13.179Z,5.65
2022-11-27T11:43:03.460Z,6.85
2022-11-27T11:45:33.388Z,6.68
2022-11-27T11:48:20.287Z,5.75
2022-11-27T11:51:17.724Z,6.00
2022-11-27T11:53:54.300Z,6.20
2022-11-27T11:56:35.750Z,6.28
2022-11-27T11:59:21.015Z,5.75
2022-11-27T12:02:18.732Z,6.22
2022-11-27T12:04:45.991Z,6.32
2022-11-27T12:10:05.076Z,6.82
2022-11-27T12:13:06.941Z,5.78
2022-11-27T12:15:59.814Z,6.20
2022-11-27T12:19:01.547Z,6.30
2022-11-27T12:21:44.325Z,5.75
2022-11-27T12:24:33.172Z,5.70
2022-11-27T12:27:21.294Z,5.53
2022-11-27T12:30:17.935Z,6.45
2022-11-27T12:32:45.114Z,5.90
2022-11-27T12:35:32.392Z,5.95
2022-11-27T12:38:13.405Z,5.82
2022-11-27T12:40:40.485Z,6.35
2022-11-27T12:43:16.976Z,6.05
2022-11-27T12:48:53.490Z,5.72
2022-11-27T12:51:29.358Z,5.88
2022-11-27T12:54:06.375Z,6.18
2022-11-27T13:03:14.086Z,6.07
2022-11-27T13:21:03.698Z,5.63
2022-11-27T13:23:35.719Z,6.78
2022-11-27T13:26:07.505Z,6.72
2022-11-27T13:28:46.486Z,6.55
2022-11-27T13:41:05.842Z,5.00
2022-11-27T14:11:35.514Z,5.10
2022-11-27T14:36:37.252Z,5.28
2022-11-27T14:39:05.141Z,5.68
2022-11-27T14:41:32.315Z,5.75
2022-11-27T14:44:04.801Z,4.90
2022-11-27T14:46:35.475Z,5.20
2022-11-27T14:49:02.774Z,5.70
2022-11-27T14:51:37.426Z,6.35
2022-11-27T14:54:17.152Z,5.68
2022-11-27T14:56:45.434Z,5.97
2022-11-27T14:59:17.662Z,5.25
2022-11-27T15:01:46.696Z,4.90
2022-11-27T15:04:28.287Z,5.78
2022-11-27T15:06:57.503Z,8.70
2022-11-27T15:09:32.087Z,7.03
2022-11-27T15:15:07.760Z,5.43
2022-11-27T15:17:38.113Z,5.60
2022-11-27T15:20:16.250Z,5.10
2022-11-27T15:23:15.765Z,5.28
2022-11-27T15:25:45.734Z,6.13
2022-11-27T15:28:40.171Z,4.97
2022-11-27T15:34:27.460Z,5.57
2022-11-27T15:37:01.546Z,5.63
2022-11-27T15:42:18.741Z,4.68
2022-11-27T15:44:47.975Z,5.32
2022-11-27T15:47:31.171Z,5.22
2022-11-27T15:49:59.470Z,6.70
2022-11-27T15:52:27.626Z,5.30
2022-11-27T16:10:10.517Z,4.82
2022-11-27T16:12:38.966Z,4.63
2022-11-27T16:15:10.076Z,5.63
2022-11-27T16:17:37.182Z,5.43
2022-11-27T16:20:04.476Z,5.80
2022-11-27T16:37:18.407Z,5.60
2022-11-27T16:46:08.705Z,6.18
2022-11-27T16:51:40.485Z,7.55
2022-11-27T17:29:03.564Z,8.65
2022-11-27T17:31:33.916Z,8.43
2022-11-27T17:34:02.002Z,8.48
2022-11-27T17:36:36.564Z,8.70
2022-11-27T17:50:48.238Z,8.98
2022-11-27T17:56:57.530Z,8.80
2022-11-27T18:02:36.692Z,10.25
2022-11-27T18:05:16.154Z,11.65
2022-11-27T18:07:43.744Z,9.68
2022-11-27T18:10:11.527Z,12.40
2022-11-27T18:12:38.697Z,10.68
2022-11-27T18:18:12.071Z,10.52
2022-11-27T18:44:45.436Z,11.88
2022-11-27T18:50:16.299Z,10.73
2022-11-27T18:53:09.135Z,10.60
2022-11-27T19:19:57.283Z,11.77
2022-11-27T19:41:34.447Z,9.90
2022-11-27T19:49:56.497Z,9.90
2022-11-27T19:58:47.071Z,9.30
2022-11-27T20:04:21.103Z,8.93
2022-11-27T20:09:47.132Z,9.50
2022-11-27T20:12:14.295Z,8.68
2022-11-27T20:14:42.100Z,11.00
2022-11-27T20:25:52.218Z,9.02
2022-11-27T20:28:22.825Z,8.85
2022-11-27T20:34:02.005Z,9.63
2022-11-27T20:36:33.862Z,10.38
2022-11-27T20:39:01.791Z,9.88
2022-11-27T20:41:29.812Z,9.75
2022-11-27T20:43:59.476Z,10.38
2022-11-27T20:46:27.563Z,11.25
2022-11-27T20:48:55.320Z,9.93
2022-11-27T20:57:28.963Z,11.43
2022-11-27T21:00:07.358Z,12.27
2022-11-27T21:02:36.803Z,11.73
2022-11-27T21:05:04.450Z,12.35
2022-11-27T21:07:39.064Z,12.15
2022-11-27T21:10:14.971Z,13.55
2022-11-27T21:12:52.966Z,14.40
2022-11-27T21:18:30.011Z,12.35
2022-11-27T21:21:04.106Z,12.38
2022-11-27T21:26:28.038Z,13.18
2022-11-27T21:29:25.498Z,13.45
2022-11-27T21:31:59.956Z,12.15
2022-11-27T21:34:27.371Z,14.90
2022-11-27T21:36:54.868Z,14.95
2022-11-27T21:45:32.007Z,11.55
2022-11-27T21:47:59.063Z,10.63
2022-11-27T21:50:26.359Z,11.35
2022-11-27T21:52:53.706Z,11.02
2022-11-27T21:55:20.919Z,11.05
2022-11-27T22:18:44.517Z,9.82
2022-11-27T22:27:23.755Z,9.70
2022-11-27T22:29:51.271Z,10.10
2022-11-27T22:38:55.513Z,9.93
2022-11-27T22:41:25.271Z,9.90
2022-11-27T22:43:53.122Z,10.82
2022-11-27T23:04:47.339Z,11.00
2022-11-27T23:07:14.406Z,12.38
2022-11-27T23:09:42.150Z,11.60
2022-11-27T23:18:00.903Z,11.27
2022-11-27T23:20:28.165Z,12.70
